sensor_id;sensor_type;location;lat;lon;timestamp;P1;durP1;ratioP1;P2;durP2;ratioP2
15167;SDS011;7684;52.150;11.656;2022-08-24T00:01:17;5.07;;;3.70;;
15167;SDS011;7684;52.150;11.656;2022-08-24T00:03:43;6.07;;;3.30;;
15167;SDS011;7684;52.150;11.656;2022-08-24T00:06:12;5.63;;;3.30;;
15167;SDS011;7684;52.150;11.656;2022-08-24T00:08:39;6.70;;;3.53;;
15167;SDS011;7684;52.150;11.656;2022-08-24T00:11:05;3.43;;;2.97;;
15167;SDS011;7684;52.150;11.656;2022-08-24T00:13:32;3.60;;;2.97;;
15167;SDS011;7684;52.150;11.656;2022-08-24T00:15:59;3.80;;;2.97;;
15167;SDS011;7684;52.150;11.656;2022-08-24T00:18:26;5.27;;;3.40;;
15167;SDS011;7684;52.150;11.656;2022-08-24T00:20:53;4.43;;;3.10;;
15167;SDS011;7684;52.150;11.656;2022-08-24T00:23:19;5.03;;;3.23;;
15167;SDS011;7684;52.150;11.656;2022-08-24T00:25:46;4.50;;;3.40;;
15167;SDS011;7684;52.150;11.656;2022-08-24T00:28:12;4.23;;;3.20;;
15167;SDS011;7684;52.150;11.656;2022-08-24T00:30:39;8.10;;;4.17;;
15167;SDS011;7684;52.150;11.656;2022-08-24T00:33:05;4.00;;;3.33;;
15167;SDS011;7684;52.150;11.656;2022-08-24T00:35:33;8.70;;;3.73;;
15167;SDS011;7684;52.150;11.656;2022-08-24T00:38:00;4.97;;;3.63;;
15167;SDS011;7684;52.150;11.656;2022-08-24T00:40:27;5.47;;;3.70;;
15167;SDS011;7684;52.150;11.656;2022-08-24T00:42:54;6.20;;;3.83;;
15167;SDS011;7684;52.150;11.656;2022-08-24T00:45:21;5.13;;;3.40;;
15167;SDS011;7684;52.150;11.656;2022-08-24T00:47:52;4.97;;;3.73;;
15167;SDS011;7684;52.150;11.656;2022-08-24T00:50:21;5.17;;;3.33;;
15167;SDS011;7684;52.150;11.656;2022-08-24T00:52:50;6.13;;;3.90;;
15167;SDS011;7684;52.150;11.656;2022-08-24T00:55:19;5.37;;;3.63;;
15167;SDS011;7684;52.150;11.656;2022-08-24T00:57:47;5.37;;;3.80;;
15167;SDS011;7684;52.150;11.656;2022-08-24T01:00:16;5.60;;;4.30;;
15167;SDS011;7684;52.150;11.656;2022-08-24T01:02:44;4.10;;;3.70;;
15167;SDS011;7684;52.150;11.656;2022-08-24T01:05:10;7.30;;;4.53;;
15167;SDS011;7684;52.150;11.656;2022-08-24T01:07:38;5.63;;;4.20;;
15167;SDS011;7684;52.150;11.656;2022-08-24T01:10:06;6.20;;;4.30;;
15167;SDS011;7684;52.150;11.656;2022-08-24T01:12:34;5.47;;;4.40;;
15167;SDS011;7684;52.150;11.656;2022-08-24T01:15:01;5.67;;;4.43;;
15167;SDS011;7684;52.150;11.656;2022-08-24T01:17:27;5.73;;;4.07;;
15167;SDS011;7684;52.150;11.656;2022-08-24T01:20:12;5.17;;;4.07;;
15167;SDS011;7684;52.150;11.656;2022-08-24T01:22:43;4.50;;;3.60;;
15167;SDS011;7684;52.150;11.656;2022-08-24T01:25:13;7.40;;;4.40;;
15167;SDS011;7684;52.150;11.656;2022-08-24T01:27:40;4.27;;;3.80;;
15167;SDS011;7684;52.150;11.656;2022-08-24T01:30:08;5.77;;;4.17;;
15167;SDS011;7684;52.150;11.656;2022-08-24T01:32:35;4.30;;;3.90;;
15167;SDS011;7684;52.150;11.656;2022-08-24T01:35:02;5.63;;;4.23;;
15167;SDS011;7684;52.150;11.656;2022-08-24T01:37:29;8.43;;;4.47;;
15167;SDS011;7684;52.150;11.656;2022-08-24T01:39:57;7.60;;;4.33;;
15167;SDS011;7684;52.150;11.656;2022-08-24T01:42:25;5.17;;;4.20;;
15167;SDS011;7684;52.150;11.656;2022-08-24T01:44:54;4.83;;;4.40;;
15167;SDS011;7684;52.150;11.656;2022-08-24T01:47:20;6.33;;;3.90;;
15167;SDS011;7684;52.150;11.656;2022-08-24T01:49:47;4.90;;;4.27;;
15167;SDS011;7684;52.150;11.656;2022-08-24T01:52:16;7.30;;;4.20;;
15167;SDS011;7684;52.150;11.656;2022-08-24T01:54:43;6.43;;;4.20;;
15167;SDS011;7684;52.150;11.656;2022-08-24T01:57:10;7.00;;;4.77;;
15167;SDS011;7684;52.150;11.656;2022-08-24T01:59:38;7.50;;;4.20;;
15167;SDS011;7684;52.150;11.656;2022-08-24T02:02:09;4.47;;;4.00;;
15167;SDS011;7684;52.150;11.656;2022-08-24T02:04:36;6.37;;;4.47;;
15167;SDS011;7684;52.150;11.656;2022-08-24T02:07:02;5.37;;;3.93;;
15167;SDS011;7684;52.150;11.656;2022-08-24T02:09:29;5.57;;;4.30;;
15167;SDS011;7684;52.150;11.656;2022-08-24T02:11:56;6.67;;;4.43;;
15167;SDS011;7684;52.150;11.656;2022-08-24T02:14:22;6.43;;;4.47;;
15167;SDS011;7684;52.150;11.656;2022-08-24T02:16:50;5.30;;;4.27;;
15167;SDS011;7684;52.150;11.656;2022-08-24T02:19:16;6.33;;;4.80;;
15167;SDS011;7684;52.150;11.656;2022-08-24T02:21:42;5.30;;;4.20;;
15167;SDS011;7684;52.150;11.656;2022-08-24T02:24:09;6.57;;;4.47;;
15167;SDS011;7684;52.150;11.656;2022-08-24T02:26:35;7.83;;;4.60;;
15167;SDS011;7684;52.150;11.656;2022-08-24T02:29:01;6.87;;;4.20;;
15167;SDS011;7684;52.150;11.656;2022-08-24T02:31:28;6.50;;;4.20;;
15167;SDS011;7684;52.150;11.656;2022-08-24T02:33:56;5.60;;;4.30;;
15167;SDS011;7684;52.150;11.656;2022-08-24T02:36:22;6.47;;;4.43;;
15167;SDS011;7684;52.150;11.656;2022-08-24T02:38:48;5.37;;;4.60;;
15167;SDS011;7684;52.150;11.656;2022-08-24T02:41:15;6.90;;;4.77;;
15167;SDS011;7684;52.150;11.656;2022-08-24T02:43:41;5.03;;;4.37;;
15167;SDS011;7684;52.150;11.656;2022-08-24T02:46:07;6.20;;;4.50;;
15167;SDS011;7684;52.150;11.656;2022-08-24T02:48:41;5.33;;;4.57;;
15167;SDS011;7684;52.150;11.656;2022-08-24T02:51:16;5.10;;;4.37;;
15167;SDS011;7684;52.150;11.656;2022-08-24T02:53:44;7.53;;;4.67;;
15167;SDS011;7684;52.150;11.656;2022-08-24T02:56:11;7.07;;;4.40;;
15167;SDS011;7684;52.150;11.656;2022-08-24T02:58:37;6.40;;;4.47;;
15167;SDS011;7684;52.150;11.656;2022-08-24T03:01:03;5.63;;;4.50;;
15167;SDS011;7684;52.150;11.656;2022-08-24T03:03:30;5.23;;;4.73;;
15167;SDS011;7684;52.150;11.656;2022-08-24T03:05:56;4.90;;;4.23;;
15167;SDS011;7684;52.150;11.656;2022-08-24T03:08:24;5.13;;;4.60;;
15167;SDS011;7684;52.150;11.656;2022-08-24T03:10:51;5.30;;;4.63;;
15167;SDS011;7684;52.150;11.656;2022-08-24T03:13:17;5.53;;;5.03;;
15167;SDS011;7684;52.150;11.656;2022-08-24T03:15:43;5.23;;;4.80;;
15167;SDS011;7684;52.150;11.656;2022-08-24T03:18:10;7.70;;;5.50;;
15167;SDS011;7684;52.150;11.656;2022-08-24T03:20:36;5.77;;;5.17;;
15167;SDS011;7684;52.150;11.656;2022-08-24T03:23:03;6.47;;;5.50;;
15167;SDS011;7684;52.150;11.656;2022-08-24T03:25:31;5.80;;;5.20;;
15167;SDS011;7684;52.150;11.656;2022-08-24T03:27:57;5.37;;;4.87;;
15167;SDS011;7684;52.150;11.656;2022-08-24T03:30:24;6.43;;;4.87;;
15167;SDS011;7684;52.150;11.656;2022-08-24T03:32:50;6.30;;;4.83;;
15167;SDS011;7684;52.150;11.656;2022-08-24T03:35:17;6.13;;;5.53;;
15167;SDS011;7684;52.150;11.656;2022-08-24T03:37:43;6.73;;;5.80;;
15167;SDS011;7684;52.150;11.656;2022-08-24T03:40:10;7.40;;;5.30;;
15167;SDS011;7684;52.150;11.656;2022-08-24T03:42:38;8.13;;;5.97;;
15167;SDS011;7684;52.150;11.656;2022-08-24T03:45:06;7.33;;;6.07;;
15167;SDS011;7684;52.150;11.656;2022-08-24T03:47:32;7.40;;;5.83;;
15167;SDS011;7684;52.150;11.656;2022-08-24T03:49:58;6.20;;;5.47;;
15167;SDS011;7684;52.150;11.656;2022-08-24T03:52:25;7.30;;;6.00;;
15167;SDS011;7684;52.150;11.656;2022-08-24T03:54:51;6.57;;;5.60;;
15167;SDS011;7684;52.150;11.656;2022-08-24T03:57:17;6.80;;;6.10;;
15167;SDS011;7684;52.150;11.656;2022-08-24T03:59:45;8.43;;;6.50;;
15167;SDS011;7684;52.150;11.656;2022-08-24T04:02:11;6.97;;;6.27;;
15167;SDS011;7684;52.150;11.656;2022-08-24T04:04:38;9.53;;;6.70;;
15167;SDS011;7684;52.150;11.656;2022-08-24T04:07:04;7.60;;;6.23;;
15167;SDS011;7684;52.150;11.656;2022-08-24T04:09:31;8.83;;;7.03;;
15167;SDS011;7684;52.150;11.656;2022-08-24T04:11:57;7.03;;;6.23;;
15167;SDS011;7684;52.150;11.656;2022-08-24T04:14:23;6.97;;;6.10;;
15167;SDS011;7684;52.150;11.656;2022-08-24T04:16:51;9.60;;;6.37;;
15167;SDS011;7684;52.150;11.656;2022-08-24T04:19:17;8.60;;;6.40;;
15167;SDS011;7684;52.150;11.656;2022-08-24T04:21:44;7.30;;;6.60;;
15167;SDS011;7684;52.150;11.656;2022-08-24T04:24:11;7.67;;;6.57;;
15167;SDS011;7684;52.150;11.656;2022-08-24T04:26:38;7.13;;;6.43;;
15167;SDS011;7684;52.150;11.656;2022-08-24T04:29:05;9.47;;;7.10;;
15167;SDS011;7684;52.150;11.656;2022-08-24T04:31:33;7.67;;;6.73;;
15167;SDS011;7684;52.150;11.656;2022-08-24T04:34:01;8.63;;;6.90;;
15167;SDS011;7684;52.150;11.656;2022-08-24T04:36:27;8.00;;;6.70;;
15167;SDS011;7684;52.150;11.656;2022-08-24T04:38:53;6.83;;;6.20;;
15167;SDS011;7684;52.150;11.656;2022-08-24T04:41:20;8.27;;;6.43;;
15167;SDS011;7684;52.150;11.656;2022-08-24T04:43:47;8.67;;;6.87;;
15167;SDS011;7684;52.150;11.656;2022-08-24T04:46:14;7.37;;;6.57;;
15167;SDS011;7684;52.150;11.656;2022-08-24T04:48:41;7.53;;;6.83;;
15167;SDS011;7684;52.150;11.656;2022-08-24T04:51:10;9.80;;;7.50;;
15167;SDS011;7684;52.150;11.656;2022-08-24T04:53:37;9.17;;;6.90;;
15167;SDS011;7684;52.150;11.656;2022-08-24T04:56:08;9.73;;;7.20;;
15167;SDS011;7684;52.150;11.656;2022-08-24T04:58:35;9.30;;;8.40;;
15167;SDS011;7684;52.150;11.656;2022-08-24T05:01:05;10.83;;;7.90;;
15167;SDS011;7684;52.150;11.656;2022-08-24T05:03:31;8.83;;;7.93;;
15167;SDS011;7684;52.150;11.656;2022-08-24T05:05:58;12.07;;;9.10;;
15167;SDS011;7684;52.150;11.656;2022-08-24T05:08:25;11.80;;;8.13;;
15167;SDS011;7684;52.150;11.656;2022-08-24T05:10:52;9.43;;;7.20;;
15167;SDS011;7684;52.150;11.656;2022-08-24T05:13:18;14.77;;;7.90;;
15167;SDS011;7684;52.150;11.656;2022-08-24T05:15:45;8.80;;;7.90;;
15167;SDS011;7684;52.150;11.656;2022-08-24T05:18:12;11.23;;;7.80;;
15167;SDS011;7684;52.150;11.656;2022-08-24T05:20:39;12.10;;;7.47;;
15167;SDS011;7684;52.150;11.656;2022-08-24T05:23:05;9.37;;;8.30;;
15167;SDS011;7684;52.150;11.656;2022-08-24T05:25:33;9.17;;;8.27;;
15167;SDS011;7684;52.150;11.656;2022-08-24T05:27:59;10.00;;;8.17;;
15167;SDS011;7684;52.150;11.656;2022-08-24T05:30:25;11.40;;;8.23;;
15167;SDS011;7684;52.150;11.656;2022-08-24T05:32:51;8.43;;;7.73;;
15167;SDS011;7684;52.150;11.656;2022-08-24T05:35:18;9.03;;;8.00;;
15167;SDS011;7684;52.150;11.656;2022-08-24T05:37:44;9.20;;;7.53;;
15167;SDS011;7684;52.150;11.656;2022-08-24T05:40:12;9.07;;;7.60;;
15167;SDS011;7684;52.150;11.656;2022-08-24T05:42:40;8.97;;;7.37;;
15167;SDS011;7684;52.150;11.656;2022-08-24T05:45:06;9.10;;;8.07;;
15167;SDS011;7684;52.150;11.656;2022-08-24T05:47:33;9.70;;;7.40;;
15167;SDS011;7684;52.150;11.656;2022-08-24T05:49:59;10.27;;;8.40;;
15167;SDS011;7684;52.150;11.656;2022-08-24T05:52:26;8.63;;;7.50;;
15167;SDS011;7684;52.150;11.656;2022-08-24T05:54:53;7.87;;;6.93;;
15167;SDS011;7684;52.150;11.656;2022-08-24T05:57:19;9.00;;;7.63;;
15167;SDS011;7684;52.150;11.656;2022-08-24T05:59:47;8.80;;;7.90;;
15167;SDS011;7684;52.150;11.656;2022-08-24T06:02:14;10.87;;;8.60;;
15167;SDS011;7684;52.150;11.656;2022-08-24T06:04:40;8.73;;;7.87;;
15167;SDS011;7684;52.150;11.656;2022-08-24T06:07:08;11.10;;;8.80;;
15167;SDS011;7684;52.150;11.656;2022-08-24T06:09:35;9.63;;;8.27;;
15167;SDS011;7684;52.150;11.656;2022-08-24T06:12:01;11.83;;;9.37;;
15167;SDS011;7684;52.150;11.656;2022-08-24T06:14:28;10.27;;;9.13;;
15167;SDS011;7684;52.150;11.656;2022-08-24T06:16:55;10.30;;;8.60;;
15167;SDS011;7684;52.150;11.656;2022-08-24T06:19:22;9.53;;;8.10;;
15167;SDS011;7684;52.150;11.656;2022-08-24T06:21:49;8.13;;;7.33;;
15167;SDS011;7684;52.150;11.656;2022-08-24T06:24:16;9.03;;;7.70;;
15167;SDS011;7684;52.150;11.656;2022-08-24T06:26:43;8.80;;;7.53;;
15167;SDS011;7684;52.150;11.656;2022-08-24T06:29:27;8.57;;;7.50;;
15167;SDS011;7684;52.150;11.656;2022-08-24T06:31:53;10.23;;;7.80;;
15167;SDS011;7684;52.150;11.656;2022-08-24T06:34:22;7.73;;;6.77;;
15167;SDS011;7684;52.150;11.656;2022-08-24T06:36:49;8.90;;;7.17;;
15167;SDS011;7684;52.150;11.656;2022-08-24T06:39:16;7.87;;;6.83;;
15167;SDS011;7684;52.150;11.656;2022-08-24T06:41:43;8.13;;;6.37;;
15167;SDS011;7684;52.150;11.656;2022-08-24T06:44:09;6.93;;;6.13;;
15167;SDS011;7684;52.150;11.656;2022-08-24T06:46:36;6.83;;;6.13;;
15167;SDS011;7684;52.150;11.656;2022-08-24T06:49:02;6.80;;;5.87;;
15167;SDS011;7684;52.150;11.656;2022-08-24T06:51:31;10.53;;;6.33;;
15167;SDS011;7684;52.150;11.656;2022-08-24T06:53:57;8.27;;;5.68;;
15167;SDS011;7684;52.150;11.656;2022-08-24T06:56:24;7.93;;;6.13;;
15167;SDS011;7684;52.150;11.656;2022-08-24T06:58:50;8.57;;;6.50;;
15167;SDS011;7684;52.150;11.656;2022-08-24T07:01:17;8.30;;;6.65;;
15167;SDS011;7684;52.150;11.656;2022-08-24T07:03:43;8.27;;;5.73;;
15167;SDS011;7684;52.150;11.656;2022-08-24T07:06:10;7.32;;;6.25;;
15167;SDS011;7684;52.150;11.656;2022-08-24T07:08:39;8.07;;;5.63;;
15167;SDS011;7684;52.150;11.656;2022-08-24T07:11:06;9.50;;;6.80;;
15167;SDS011;7684;52.150;11.656;2022-08-24T07:13:34;8.77;;;6.43;;
15167;SDS011;7684;52.150;11.656;2022-08-24T07:16:00;11.50;;;6.37;;
15167;SDS011;7684;52.150;11.656;2022-08-24T07:18:26;8.32;;;5.88;;
15167;SDS011;7684;52.150;11.656;2022-08-24T07:20:53;9.50;;;5.57;;
15167;SDS011;7684;52.150;11.656;2022-08-24T07:23:19;6.50;;;5.70;;
15167;SDS011;7684;52.150;11.656;2022-08-24T07:25:47;8.25;;;5.65;;
15167;SDS011;7684;52.150;11.656;2022-08-24T07:28:14;7.10;;;5.70;;
15167;SDS011;7684;52.150;11.656;2022-08-24T07:30:41;8.15;;;5.82;;
15167;SDS011;7684;52.150;11.656;2022-08-24T07:33:07;6.35;;;5.50;;
15167;SDS011;7684;52.150;11.656;2022-08-24T07:35:34;11.25;;;6.07;;
15167;SDS011;7684;52.150;11.656;2022-08-24T07:38:01;6.88;;;5.50;;
15167;SDS011;7684;52.150;11.656;2022-08-24T07:40:29;8.20;;;5.25;;
15167;SDS011;7684;52.150;11.656;2022-08-24T07:42:57;9.32;;;6.03;;
15167;SDS011;7684;52.150;11.656;2022-08-24T07:45:24;7.93;;;5.47;;
15167;SDS011;7684;52.150;11.656;2022-08-24T07:47:50;9.05;;;6.18;;
15167;SDS011;7684;52.150;11.656;2022-08-24T07:50:17;6.85;;;5.10;;
15167;SDS011;7684;52.150;11.656;2022-08-24T07:52:44;6.35;;;5.03;;
15167;SDS011;7684;52.150;11.656;2022-08-24T07:55:11;7.40;;;4.40;;
15167;SDS011;7684;52.150;11.656;2022-08-24T07:57:37;9.35;;;4.93;;
15167;SDS011;7684;52.150;11.656;2022-08-24T08:00:07;7.20;;;4.75;;
15167;SDS011;7684;52.150;11.656;2022-08-24T08:02:33;8.02;;;4.57;;
15167;SDS011;7684;52.150;11.656;2022-08-24T08:05:00;6.50;;;4.20;;
15167;SDS011;7684;52.150;11.656;2022-08-24T08:07:26;7.70;;;4.45;;
15167;SDS011;7684;52.150;11.656;2022-08-24T08:09:52;5.72;;;4.30;;
15167;SDS011;7684;52.150;11.656;2022-08-24T08:12:19;7.07;;;4.40;;
15167;SDS011;7684;52.150;11.656;2022-08-24T08:14:45;6.20;;;4.55;;
15167;SDS011;7684;52.150;11.656;2022-08-24T08:17:14;6.53;;;4.35;;
15167;SDS011;7684;52.150;11.656;2022-08-24T08:19:40;5.95;;;4.60;;
15167;SDS011;7684;52.150;11.656;2022-08-24T08:22:08;5.82;;;4.35;;
15167;SDS011;7684;52.150;11.656;2022-08-24T08:24:52;7.88;;;4.32;;
15167;SDS011;7684;52.150;11.656;2022-08-24T08:27:18;4.55;;;3.70;;
15167;SDS011;7684;52.150;11.656;2022-08-24T08:29:45;6.00;;;3.33;;
15167;SDS011;7684;52.150;11.656;2022-08-24T08:32:14;8.13;;;4.35;;
15167;SDS011;7684;52.150;11.656;2022-08-24T08:34:41;5.47;;;3.78;;
15167;SDS011;7684;52.150;11.656;2022-08-24T08:37:07;5.30;;;3.50;;
15167;SDS011;7684;52.150;11.656;2022-08-24T08:39:33;4.43;;;3.17;;
15167;SDS011;7684;52.150;11.656;2022-08-24T08:42:03;4.20;;;3.28;;
15167;SDS011;7684;52.150;11.656;2022-08-24T08:44:37;3.42;;;3.13;;
15167;SDS011;7684;52.150;11.656;2022-08-24T08:47:10;4.97;;;3.28;;
15167;SDS011;7684;52.150;11.656;2022-08-24T08:49:49;4.63;;;2.88;;
15167;SDS011;7684;52.150;11.656;2022-08-24T08:52:24;3.58;;;2.58;;
15167;SDS011;7684;52.150;11.656;2022-08-24T08:54:58;4.15;;;2.90;;
15167;SDS011;7684;52.150;11.656;2022-08-24T08:57:33;5.15;;;2.95;;
15167;SDS011;7684;52.150;11.656;2022-08-24T09:00:06;2.92;;;2.40;;
15167;SDS011;7684;52.150;11.656;2022-08-24T09:03:00;3.45;;;2.50;;
15167;SDS011;7684;52.150;11.656;2022-08-24T09:05:41;5.43;;;2.35;;
15167;SDS011;7684;52.150;11.656;2022-08-24T09:08:14;4.90;;;2.38;;
15167;SDS011;7684;52.150;11.656;2022-08-24T09:10:48;5.05;;;2.40;;
15167;SDS011;7684;52.150;11.656;2022-08-24T09:13:22;4.47;;;2.00;;
15167;SDS011;7684;52.150;11.656;2022-08-24T09:18:37;4.50;;;2.30;;
15167;SDS011;7684;52.150;11.656;2022-08-24T09:21:18;4.30;;;2.28;;
15167;SDS011;7684;52.150;11.656;2022-08-24T09:23:48;4.15;;;2.10;;
15167;SDS011;7684;52.150;11.656;2022-08-24T09:26:21;4.15;;;2.05;;
15167;SDS011;7684;52.150;11.656;2022-08-24T09:28:52;3.15;;;1.98;;
15167;SDS011;7684;52.150;11.656;2022-08-24T09:31:26;2.90;;;1.80;;
15167;SDS011;7684;52.150;11.656;2022-08-24T09:33:56;3.38;;;1.95;;
15167;SDS011;7684;52.150;11.656;2022-08-24T09:36:36;1.95;;;1.50;;
15167;SDS011;7684;52.150;11.656;2022-08-24T09:39:10;5.15;;;1.90;;
15167;SDS011;7684;52.150;11.656;2022-08-24T09:44:26;5.05;;;2.20;;
15167;SDS011;7684;52.150;11.656;2022-08-24T09:49:46;3.22;;;1.95;;
15167;SDS011;7684;52.150;11.656;2022-08-24T09:55:05;3.15;;;2.00;;
15167;SDS011;7684;52.150;11.656;2022-08-24T09:57:38;4.15;;;1.92;;
15167;SDS011;7684;52.150;11.656;2022-08-24T10:00:08;2.92;;;1.75;;
15167;SDS011;7684;52.150;11.656;2022-08-24T10:02:48;3.90;;;1.75;;
15167;SDS011;7684;52.150;11.656;2022-08-24T10:05:20;2.88;;;1.90;;
15167;SDS011;7684;52.150;11.656;2022-08-24T10:07:49;2.83;;;1.45;;
15167;SDS011;7684;52.150;11.656;2022-08-24T10:10:23;3.67;;;1.70;;
15167;SDS011;7684;52.150;11.656;2022-08-24T10:12:55;3.35;;;1.63;;
15167;SDS011;7684;52.150;11.656;2022-08-24T10:15:25;4.13;;;1.88;;
15167;SDS011;7684;52.150;11.656;2022-08-24T10:17:59;3.88;;;1.85;;
15167;SDS011;7684;52.150;11.656;2022-08-24T10:20:33;3.05;;;1.70;;
15167;SDS011;7684;52.150;11.656;2022-08-24T10:23:24;1.90;;;1.48;;
15167;SDS011;7684;52.150;11.656;2022-08-24T10:25:58;2.45;;;1.60;;
15167;SDS011;7684;52.150;11.656;2022-08-24T10:28:41;2.83;;;1.80;;
15167;SDS011;7684;52.150;11.656;2022-08-24T10:31:10;3.28;;;1.90;;
15167;SDS011;7684;52.150;11.656;2022-08-24T10:33:40;3.22;;;1.73;;
15167;SDS011;7684;52.150;11.656;2022-08-24T10:38:57;3.28;;;1.85;;
15167;SDS011;7684;52.150;11.656;2022-08-24T10:42:06;2.42;;;1.80;;
15167;SDS011;7684;52.150;11.656;2022-08-24T10:44:57;3.42;;;1.70;;
15167;SDS011;7684;52.150;11.656;2022-08-24T10:47:29;4.10;;;1.80;;
15167;SDS011;7684;52.150;11.656;2022-08-24T10:50:19;3.03;;;1.85;;
15167;SDS011;7684;52.150;11.656;2022-08-24T10:55:38;2.92;;;1.73;;
15167;SDS011;7684;52.150;11.656;2022-08-24T10:58:09;2.15;;;1.60;;
15167;SDS011;7684;52.150;11.656;2022-08-24T11:00:38;4.40;;;1.90;;
15167;SDS011;7684;52.150;11.656;2022-08-24T11:03:07;3.22;;;1.40;;
15167;SDS011;7684;52.150;11.656;2022-08-24T11:05:35;3.08;;;1.88;;
15167;SDS011;7684;52.150;11.656;2022-08-24T11:08:04;2.58;;;1.52;;
15167;SDS011;7684;52.150;11.656;2022-08-24T11:10:41;3.42;;;1.48;;
15167;SDS011;7684;52.150;11.656;2022-08-24T11:13:20;4.05;;;1.50;;
15167;SDS011;7684;52.150;11.656;2022-08-24T11:15:48;2.55;;;1.38;;
15167;SDS011;7684;52.150;11.656;2022-08-24T11:18:15;2.47;;;1.40;;
15167;SDS011;7684;52.150;11.656;2022-08-24T11:20:43;2.90;;;1.27;;
15167;SDS011;7684;52.150;11.656;2022-08-24T11:23:13;2.88;;;1.60;;
15167;SDS011;7684;52.150;11.656;2022-08-24T11:25:41;2.05;;;0.95;;
15167;SDS011;7684;52.150;11.656;2022-08-24T11:28:11;2.38;;;1.08;;
15167;SDS011;7684;52.150;11.656;2022-08-24T11:30:44;2.95;;;1.23;;
15167;SDS011;7684;52.150;11.656;2022-08-24T11:33:22;2.33;;;1.23;;
15167;SDS011;7684;52.150;11.656;2022-08-24T11:35:49;3.90;;;1.48;;
15167;SDS011;7684;52.150;11.656;2022-08-24T11:38:19;1.60;;;1.10;;
15167;SDS011;7684;52.150;11.656;2022-08-24T11:40:46;2.47;;;1.45;;
15167;SDS011;7684;52.150;11.656;2022-08-24T11:43:18;2.78;;;1.40;;
15167;SDS011;7684;52.150;11.656;2022-08-24T11:45:50;2.13;;;1.02;;
15167;SDS011;7684;52.150;11.656;2022-08-24T11:48:24;2.58;;;1.20;;
15167;SDS011;7684;52.150;11.656;2022-08-24T11:50:54;5.15;;;1.40;;
15167;SDS011;7684;52.150;11.656;2022-08-24T11:53:24;2.08;;;1.30;;
15167;SDS011;7684;52.150;11.656;2022-08-24T11:55:54;2.70;;;1.10;;
15167;SDS011;7684;52.150;11.656;2022-08-24T11:58:28;2.97;;;1.23;;
15167;SDS011;7684;52.150;11.656;2022-08-24T12:00:58;2.28;;;1.23;;
15167;SDS011;7684;52.150;11.656;2022-08-24T12:03:31;2.17;;;1.13;;
15167;SDS011;7684;52.150;11.656;2022-08-24T12:06:02;4.30;;;1.20;;
15167;SDS011;7684;52.150;11.656;2022-08-24T12:08:33;3.30;;;1.20;;
15167;SDS011;7684;52.150;11.656;2022-08-24T12:11:05;3.47;;;1.38;;
15167;SDS011;7684;52.150;11.656;2022-08-24T12:13:36;2.95;;;1.10;;
15167;SDS011;7684;52.150;11.656;2022-08-24T12:16:08;3.08;;;1.20;;
15167;SDS011;7684;52.150;11.656;2022-08-24T12:18:47;2.03;;;1.20;;
15167;SDS011;7684;52.150;11.656;2022-08-24T12:21:15;2.42;;;1.20;;
15167;SDS011;7684;52.150;11.656;2022-08-24T12:23:44;3.25;;;1.20;;
15167;SDS011;7684;52.150;11.656;2022-08-24T12:26:11;2.05;;;1.10;;
15167;SDS011;7684;52.150;11.656;2022-08-24T12:28:39;3.33;;;1.50;;
15167;SDS011;7684;52.150;11.656;2022-08-24T12:31:10;2.10;;;1.15;;
15167;SDS011;7684;52.150;11.656;2022-08-24T12:33:38;1.52;;;1.20;;
15167;SDS011;7684;52.150;11.656;2022-08-24T12:36:11;2.22;;;1.13;;
15167;SDS011;7684;52.150;11.656;2022-08-24T12:38:41;2.42;;;1.20;;
15167;SDS011;7684;52.150;11.656;2022-08-24T12:41:11;2.30;;;1.15;;
15167;SDS011;7684;52.150;11.656;2022-08-24T12:43:41;1.65;;;1.10;;
15167;SDS011;7684;52.150;11.656;2022-08-24T12:46:10;3.25;;;1.33;;
15167;SDS011;7684;52.150;11.656;2022-08-24T12:48:38;2.53;;;1.27;;
15167;SDS011;7684;52.150;11.656;2022-08-24T12:51:09;3.08;;;1.48;;
15167;SDS011;7684;52.150;11.656;2022-08-24T12:53:45;3.20;;;1.08;;
15167;SDS011;7684;52.150;11.656;2022-08-24T12:59:07;2.20;;;1.55;;
15167;SDS011;7684;52.150;11.656;2022-08-24T13:01:40;3.40;;;1.52;;
15167;SDS011;7684;52.150;11.656;2022-08-24T13:04:15;1.73;;;1.52;;
15167;SDS011;7684;52.150;11.656;2022-08-24T13:06:44;1.88;;;1.58;;
15167;SDS011;7684;52.150;11.656;2022-08-24T13:09:15;3.35;;;2.00;;
15167;SDS011;7684;52.150;11.656;2022-08-24T13:11:42;2.70;;;1.63;;
15167;SDS011;7684;52.150;11.656;2022-08-24T13:14:16;2.53;;;2.00;;
15167;SDS011;7684;52.150;11.656;2022-08-24T13:19:33;2.40;;;1.80;;
15167;SDS011;7684;52.150;11.656;2022-08-24T13:24:58;3.65;;;2.10;;
15167;SDS011;7684;52.150;11.656;2022-08-24T13:30:17;3.25;;;1.85;;
15167;SDS011;7684;52.150;11.656;2022-08-24T13:32:45;2.95;;;1.90;;
15167;SDS011;7684;52.150;11.656;2022-08-24T13:35:32;3.10;;;2.40;;
15167;SDS011;7684;52.150;11.656;2022-08-24T13:40:44;5.00;;;2.10;;
15167;SDS011;7684;52.150;11.656;2022-08-24T13:43:13;3.08;;;2.20;;
15167;SDS011;7684;52.150;11.656;2022-08-24T13:45:43;2.90;;;1.90;;
15167;SDS011;7684;52.150;11.656;2022-08-24T13:48:14;3.58;;;1.77;;
15167;SDS011;7684;52.150;11.656;2022-08-24T13:50:47;2.05;;;1.77;;
15167;SDS011;7684;52.150;11.656;2022-08-24T13:53:35;2.92;;;2.15;;
15167;SDS011;7684;52.150;11.656;2022-08-24T13:56:23;5.32;;;2.00;;
15167;SDS011;7684;52.150;11.656;2022-08-24T13:58:52;3.40;;;2.05;;
15167;SDS011;7684;52.150;11.656;2022-08-24T14:01:23;2.53;;;1.80;;
15167;SDS011;7684;52.150;11.656;2022-08-24T14:04:01;5.53;;;2.28;;
15167;SDS011;7684;52.150;11.656;2022-08-24T14:06:32;4.00;;;2.33;;
15167;SDS011;7684;52.150;11.656;2022-08-24T14:09:18;2.40;;;1.98;;
15167;SDS011;7684;52.150;11.656;2022-08-24T14:11:57;2.90;;;2.30;;
15167;SDS011;7684;52.150;11.656;2022-08-24T14:14:34;2.70;;;1.88;;
15167;SDS011;7684;52.150;11.656;2022-08-24T14:17:05;4.47;;;2.42;;
15167;SDS011;7684;52.150;11.656;2022-08-24T14:19:56;4.72;;;2.30;;
15167;SDS011;7684;52.150;11.656;2022-08-24T14:22:29;2.55;;;2.08;;
15167;SDS011;7684;52.150;11.656;2022-08-24T14:25:02;3.60;;;2.08;;
15167;SDS011;7684;52.150;11.656;2022-08-24T14:27:35;5.68;;;2.45;;
15167;SDS011;7684;52.150;11.656;2022-08-24T14:32:45;7.43;;;2.90;;
15167;SDS011;7684;52.150;11.656;2022-08-24T14:35:24;3.20;;;2.60;;
15167;SDS011;7684;52.150;11.656;2022-08-24T14:37:58;2.25;;;2.10;;
15167;SDS011;7684;52.150;11.656;2022-08-24T14:40:28;3.35;;;2.30;;
15167;SDS011;7684;52.150;11.656;2022-08-24T14:42:58;7.15;;;2.50;;
15167;SDS011;7684;52.150;11.656;2022-08-24T14:45:25;4.25;;;2.83;;
15167;SDS011;7684;52.150;11.656;2022-08-24T14:48:05;2.92;;;2.67;;
15167;SDS011;7684;52.150;11.656;2022-08-24T14:50:36;5.65;;;3.10;;
15167;SDS011;7684;52.150;11.656;2022-08-24T14:53:14;4.32;;;2.85;;
15167;SDS011;7684;52.150;11.656;2022-08-24T14:55:43;3.42;;;2.70;;
15167;SDS011;7684;52.150;11.656;2022-08-24T14:58:13;4.05;;;2.75;;
15167;SDS011;7684;52.150;11.656;2022-08-24T15:00:47;3.85;;;3.10;;
15167;SDS011;7684;52.150;11.656;2022-08-24T15:03:18;5.03;;;3.17;;
15167;SDS011;7684;52.150;11.656;2022-08-24T15:06:01;5.60;;;2.95;;
15167;SDS011;7684;52.150;11.656;2022-08-24T15:08:31;5.00;;;3.15;;
15167;SDS011;7684;52.150;11.656;2022-08-24T15:11:00;3.30;;;2.50;;
15167;SDS011;7684;52.150;11.656;2022-08-24T15:13:28;4.57;;;2.60;;
15167;SDS011;7684;52.150;11.656;2022-08-24T15:15:58;3.70;;;2.47;;
15167;SDS011;7684;52.150;11.656;2022-08-24T15:18:26;5.65;;;2.60;;
15167;SDS011;7684;52.150;11.656;2022-08-24T15:23:48;3.95;;;2.97;;
15167;SDS011;7684;52.150;11.656;2022-08-24T15:26:19;3.85;;;2.67;;
15167;SDS011;7684;52.150;11.656;2022-08-24T15:28:49;4.00;;;2.55;;
15167;SDS011;7684;52.150;11.656;2022-08-24T15:31:17;4.35;;;2.80;;
15167;SDS011;7684;52.150;11.656;2022-08-24T15:33:50;3.67;;;3.17;;
15167;SDS011;7684;52.150;11.656;2022-08-24T15:36:17;4.18;;;3.40;;
15167;SDS011;7684;52.150;11.656;2022-08-24T15:38:43;5.15;;;3.03;;